首页
METAR-TAF:

METAR-TAF

机场 :

帕德博恩/利普施塔特机场

Paderborn-Lippstadt, 德国

纬度: 51-37N, 经度: 008-37E, 海拔: 213米

当前天气观测

该预报发布于2小时和28分钟前的19:50 UTC
风速10节,风向东转东南
温度 27°C
湿度 45%
气压 1017 hPa
能见度10公里或以上
1500米以下无云,无积雨云

METAR: EDLP 111950Z 11010KT CAVOK 27/14 Q1017

时间: 00:18 (22:18 UTC)

预报

该预报发布于5小时和18分钟前的17:00 UTC
预报有效从11日的 18点(UTC)到 12日的 18点(UTC)
风速6节,风向东南
能见度10公里或以上
1500米以下无云,无积雨云
成为
从 12日的 06点(UTC)到 12日的 09点(UTC)
风速11节,风向东南

TAF: EDLP 111700Z 1118/1218 13006KT CAVOK BECMG 1206/1209 13011KT

超过4000个机场的气象观测和天气预报(METAR&TAF报告)。

可查询的气象台以黄色和红色小点在地图上表示。

将鼠标移到小点上方,可查看气象台名称。

然后点击查看天气观测和预报。

如需切换地图:点击带黑十字的绿色按钮放大地图;点击带横线的绿色按钮缩小地图;或者点击绿色箭头查看邻近地区的地图。


METAR-TAF: